Time;durP1;ratioP1;P1;durP2;ratioP2;P2;SDS_P1;SDS_P2;PMS_P1;PMS_P2;Temp;Humidity;BMP_temperature;BMP_pressure;BME280_temperature;BME280_humidity;BME280_pressure;Samples;Min_cycle;Max_cycle;Signal;HPM_P1;HPM_P2
2023/06/25 00:01:22;;;;;;;1.00;0.90;;;17.50;99.90;;;;;;5110927;27;20352;-79
2023/06/25 00:03:48;;;;;;;;;;;17.50;99.90;;;;;;5094936;27;20047;-79
2023/06/25 00:06:14;;;;;;;0.80;0.80;;;17.40;99.90;;;;;;5107887;27;20025;-79
2023/06/25 00:08:39;;;;;;;;;;;17.40;99.90;;;;;;5096220;27;20091;-79
2023/06/25 00:11:05;;;;;;;1.00;0.90;;;17.40;99.90;;;;;;5110885;27;19923;-79
2023/06/25 00:13:30;;;;;;;0.73;0.73;;;17.40;99.90;;;;;;5096840;27;20078;-79
2023/06/25 00:15:59;;;;;;;;;;;17.30;99.90;;;;;;5094814;27;20474;-79
2023/06/25 00:18:26;;;;;;;1.30;1.00;;;17.30;99.90;;;;;;5130272;27;20010;-79
2023/06/25 00:20:53;;;;;;;1.77;0.95;;;17.20;99.90;;;;;;5079797;27;20379;-79
2023/06/25 00:23:19;;;;;;;0.93;0.90;;;17.20;99.90;;;;;;5085404;28;20086;-79
2023/06/25 00:25:45;;;;;;;0.93;0.80;;;17.20;99.90;;;;;;5080524;27;20050;-79
2023/06/25 00:28:10;;;;;;;;;;;17.20;99.90;;;;;;5096543;27;20051;-80
2023/06/25 00:30:37;;;;;;;1.15;0.90;;;17.20;99.90;;;;;;5095599;27;19926;-79
2023/06/25 00:33:03;;;;;;;1.33;1.10;;;17.10;99.90;;;;;;5112845;27;20043;-79
2023/06/25 00:35:43;;;;;;;;;;;17.20;99.90;;;;;;5077842;27;20047;-79
2023/06/25 00:38:09;;;;;;;1.10;1.00;;;17.20;99.90;;;;;;5112720;27;19924;-79
2023/06/25 00:40:35;;;;;;;;;;;17.10;99.90;;;;;;5091312;27;20070;-80
2023/06/25 00:43:03;;;;;;;1.10;1.00;;;17.10;99.90;;;;;;5112940;28;19926;-79
2023/06/25 00:45:29;;;;;;;0.85;0.80;;;17.10;99.90;;;;;;5095748;28;20035;-79
2023/06/25 00:47:54;;;;;;;;;;;17.10;99.90;;;;;;5096355;28;20092;-79
2023/06/25 00:50:21;;;;;;;1.27;0.90;;;17.10;99.90;;;;;;5112604;28;19979;-79
2023/06/25 00:52:51;;;;;;;1.17;1.02;;;17.10;99.90;;;;;;5112672;28;20401;-79
2023/06/25 00:55:18;;;;;;;1.02;0.93;;;17.10;99.90;;;;;;5095945;28;20051;-79
2023/06/25 00:57:44;;;;;;;1.00;0.90;;;17.10;99.90;;;;;;5086245;28;20047;-79
2023/06/25 01:00:14;;;;;;;;;;;17.10;99.90;;;;;;5095913;28;20042;-79
2023/06/25 01:03:09;;;;;;;1.17;1.08;;;17.00;99.90;;;;;;5112575;28;19916;-79
2023/06/25 01:05:58;;;;;;;0.98;0.82;;;17.10;99.90;;;;;;5128324;28;20035;-79
2023/06/25 01:08:28;;;;;;;1.08;0.98;;;17.00;99.90;;;;;;5110344;27;20032;-80
2023/06/25 01:10:55;;;;;;;0.80;0.80;;;17.00;99.90;;;;;;5137497;27;20363;-79
2023/06/25 01:13:21;;;;;;;0.90;0.80;;;16.90;99.90;;;;;;5076656;28;20176;-79
2023/06/25 01:15:47;;;;;;;;;;;16.90;99.90;;;;;;5092729;28;20138;-79
2023/06/25 01:18:13;;;;;;;1.10;1.00;;;16.80;99.90;;;;;;5095767;28;19919;-79
2023/06/25 01:20:43;;;;;;;0.88;0.88;;;16.80;99.90;;;;;;5112181;28;20505;-79
2023/06/25 01:23:10;;;;;;;0.90;0.80;;;16.80;99.90;;;;;;5112397;28;20051;-79
2023/06/25 01:25:37;;;;;;;0.95;0.85;;;16.70;99.90;;;;;;5078703;28;20035;-79
2023/06/25 01:28:05;;;;;;;0.90;0.80;;;16.70;99.90;;;;;;5074897;28;20122;-79
2023/06/25 01:30:31;;;;;;;0.90;0.80;;;16.70;99.90;;;;;;5096425;28;20069;-79
2023/06/25 01:32:58;;;;;;;0.88;0.88;;;16.70;99.90;;;;;;5107810;28;20118;-79
2023/06/25 01:35:24;;;;;;;0.95;0.85;;;16.70;99.90;;;;;;5113373;27;20039;-80
2023/06/25 01:37:50;;;;;;;0.85;0.85;;;16.70;99.90;;;;;;5098948;27;20043;-79
2023/06/25 01:40:16;;;;;;;;;;;16.70;99.90;;;;;;5099636;27;20091;-80
2023/06/25 01:42:43;;;;;;;0.75;0.75;;;16.60;99.90;;;;;;5116134;27;20343;-79
2023/06/25 01:45:09;;;;;;;1.08;0.98;;;16.60;99.90;;;;;;5115983;27;20100;-79
2023/06/25 01:47:37;;;;;;;1.00;0.90;;;16.70;99.90;;;;;;5108664;27;20091;-79
2023/06/25 01:50:04;;;;;;;1.10;0.98;;;16.70;99.90;;;;;;5116016;27;20519;-79
2023/06/25 01:52:30;;;;;;;1.00;0.90;;;16.80;99.90;;;;;;5098884;27;20130;-79
2023/06/25 01:54:56;;;;;;;1.63;0.93;;;16.80;99.90;;;;;;5115860;27;20126;-79
2023/06/25 01:57:21;;;;;;;;;;;16.90;99.90;;;;;;5142199;27;20130;-79
2023/06/25 01:59:47;;;;;;;0.93;0.88;;;16.90;99.90;;;;;;5112383;28;19996;-79
2023/06/25 02:02:13;;;;;;;0.98;0.90;;;16.90;99.90;;;;;;5097079;27;20452;-79
2023/06/25 02:04:39;;;;;;;1.42;1.15;;;17.00;99.90;;;;;;5094080;28;20040;-80
2023/06/25 02:07:05;;;;;;;1.00;0.88;;;17.00;99.90;;;;;;5099534;27;20039;-80
2023/06/25 02:09:30;;;;;;;;;;;17.10;99.90;;;;;;5098886;27;20129;-80
2023/06/25 02:11:56;;;;;;;1.10;1.00;;;17.10;99.90;;;;;;5114411;27;20072;-80
2023/06/25 02:14:22;;;;;;;1.55;1.23;;;17.10;99.90;;;;;;5097587;27;20047;-79
2023/06/25 02:16:47;;;;;;;;;;;17.20;99.90;;;;;;5081345;27;20047;-79
2023/06/25 02:19:13;;;;;;;1.23;0.98;;;17.20;99.90;;;;;;5115811;27;19967;-80
2023/06/25 02:21:38;;;;;;;1.73;1.23;;;17.20;99.90;;;;;;5129168;27;20406;-80
2023/06/25 02:24:04;;;;;;;1.27;1.10;;;17.20;99.90;;;;;;5130863;27;20086;-80
2023/06/25 02:26:30;;;;;;;;;;;17.20;99.90;;;;;;5099005;27;20043;-80
2023/06/25 02:28:56;;;;;;;1.52;1.30;;;17.20;99.90;;;;;;5115467;27;19977;-80
2023/06/25 02:31:22;;;;;;;1.17;1.08;;;17.20;99.90;;;;;;5105205;27;20477;-79
2023/06/25 02:33:47;;;;;;;1.63;1.35;;;17.20;99.90;;;;;;5081178;27;20043;-79
2023/06/25 02:36:13;;;;;;;1.85;1.33;;;17.20;99.90;;;;;;5097906;27;20043;-79
2023/06/25 02:38:39;;;;;;;1.58;1.20;;;17.10;99.90;;;;;;5093133;28;20058;-79
2023/06/25 02:41:04;;;;;;;;;;;17.10;99.90;;;;;;5103137;27;20047;-79
2023/06/25 02:43:31;;;;;;;1.50;1.30;;;17.00;99.90;;;;;;5114878;27;19919;-79
2023/06/25 02:45:56;;;;;;;1.80;1.30;;;17.00;99.90;;;;;;5114540;27;20043;-79
2023/06/25 02:48:22;;;;;;;;;;;17.00;99.90;;;;;;5115073;27;20046;-79
2023/06/25 02:50:48;;;;;;;1.50;1.38;;;17.00;99.90;;;;;;5114741;27;19915;-80
2023/06/25 02:53:13;;;;;;;;;;;17.00;99.90;;;;;;5098156;27;20050;-80
2023/06/25 02:55:39;;;;;;;1.45;1.15;;;16.90;99.90;;;;;;5077427;28;19926;-80
2023/06/25 02:58:05;;;;;;;1.70;1.38;;;16.90;99.90;;;;;;5084574;27;20051;-80
2023/06/25 03:00:30;;;;;;;;;;;16.80;99.90;;;;;;5097588;27;20035;-79
2023/06/25 03:02:56;;;;;;;1.70;1.23;;;16.80;99.90;;;;;;5114261;27;20002;-79
2023/06/25 03:05:22;;;;;;;1.58;1.35;;;16.80;99.90;;;;;;5133135;27;20043;-79
2023/06/25 03:07:48;;;;;;;;;;;16.80;99.90;;;;;;5080958;27;20493;-79
2023/06/25 03:10:14;;;;;;;2.20;1.33;;;16.80;99.90;;;;;;5096876;27;19927;-79
2023/06/25 03:12:39;;;;;;;;;;;16.80;99.90;;;;;;5144772;27;20047;-79
2023/06/25 03:15:06;;;;;;;1.60;1.40;;;16.80;99.90;;;;;;5099778;28;19923;-79
2023/06/25 03:17:31;;;;;;;1.73;1.40;;;16.80;99.90;;;;;;5111475;27;20490;-79
2023/06/25 03:19:57;;;;;;;;;;;16.80;99.90;;;;;;5097261;27;20039;-80
2023/06/25 03:22:22;;;;;;;1.60;1.48;;;16.90;99.90;;;;;;5113855;27;20381;-80
2023/06/25 03:24:48;;;;;;;;;;;17.00;99.90;;;;;;5080127;27;20046;-80
2023/06/25 03:27:14;;;;;;;1.58;1.30;;;17.00;99.90;;;;;;5113991;27;19923;-80
2023/06/25 03:29:39;;;;;;;;;;;17.00;99.90;;;;;;5075462;28;20031;-80
2023/06/25 03:32:05;;;;;;;2.97;2.03;;;17.10;99.90;;;;;;5109363;27;19968;-80
2023/06/25 03:34:31;;;;;;;1.65;1.48;;;17.10;99.90;;;;;;5112826;27;20039;-80
2023/06/25 03:36:56;;;;;;;;;;;17.10;99.90;;;;;;5097246;27;20058;-80
2023/06/25 03:39:22;;;;;;;1.88;1.40;;;17.20;99.90;;;;;;5112973;27;19962;-79
2023/06/25 03:41:48;;;;;;;1.73;1.50;;;17.20;99.90;;;;;;5096659;27;20049;-80
2023/06/25 03:44:14;;;;;;;1.90;1.70;;;17.20;99.90;;;;;;5094537;27;20031;-80
2023/06/25 03:46:39;;;;;;;1.60;1.50;;;17.20;99.90;;;;;;5108737;28;20069;-79
2023/06/25 03:49:05;;;;;;;2.42;1.90;;;17.30;99.90;;;;;;5084538;27;20478;-80
2023/06/25 03:51:31;;;;;;;;;;;17.30;99.90;;;;;;5096805;27;20043;-80
2023/06/25 03:53:56;;;;;;;1.85;1.45;;;17.40;99.90;;;;;;5096573;27;19969;-80
2023/06/25 03:56:22;;;;;;;;;;;17.40;99.90;;;;;;5097283;27;20054;-79
2023/06/25 03:58:48;;;;;;;2.25;1.88;;;17.40;99.90;;;;;;5112157;27;19919;-79
2023/06/25 04:01:13;;;;;;;2.10;1.58;;;17.50;99.90;;;;;;5113007;27;20091;-80
2023/06/25 04:03:39;;;;;;;2.00;1.60;;;17.50;99.90;;;;;;5094055;27;20373;-80
2023/06/25 04:06:05;;;;;;;2.45;1.80;;;17.50;99.90;;;;;;5079908;27;20035;-80
2023/06/25 04:08:31;;;;;;;;;;;17.60;99.90;;;;;;5113947;27;20490;-80
2023/06/25 04:10:56;;;;;;;1.60;1.50;;;17.60;99.90;;;;;;5095747;27;20274;-80
2023/06/25 04:13:22;;;;;;;2.03;1.80;;;17.60;99.90;;;;;;5113129;27;20050;-79
2023/06/25 04:15:48;;;;;;;2.85;2.40;;;17.70;99.90;;;;;;5113186;27;20046;-79
2023/06/25 04:18:13;;;;;;;;;;;17.70;99.90;;;;;;5148007;27;20046;-80
2023/06/25 04:20:39;;;;;;;2.58;2.05;;;17.70;99.90;;;;;;5093101;27;19950;-80
2023/06/25 04:23:04;;;;;;;2.22;2.00;;;17.80;99.90;;;;;;5112906;27;20043;-79
2023/06/25 04:25:31;;;;;;;;;;;17.80;99.90;;;;;;5096589;27;20066;-79
2023/06/25 04:27:57;;;;;;;2.67;2.10;;;17.80;99.90;;;;;;5113249;27;20349;-79
2023/06/25 04:30:23;;;;;;;2.08;1.80;;;17.80;99.90;;;;;;5112646;28;20051;-80
2023/06/25 04:32:49;;;;;;;;;;;17.90;99.90;;;;;;5059180;28;20127;-80
2023/06/25 04:35:16;;;;;;;2.08;1.88;;;17.90;99.90;;;;;;5137388;27;19919;-79
2023/06/25 04:37:42;;;;;;;2.20;1.70;;;18.00;99.90;;;;;;5107547;28;20039;-79
2023/06/25 04:40:07;;;;;;;;;;;18.00;99.90;;;;;;5106655;27;20046;-79
2023/06/25 04:42:33;;;;;;;2.40;1.80;;;18.00;99.90;;;;;;5109138;28;19919;-79
2023/06/25 04:44:59;;;;;;;;;;;18.10;99.90;;;;;;5136964;27;20035;-78
2023/06/25 04:47:24;;;;;;;1.75;1.30;;;18.00;99.90;;;;;;5108857;27;20326;-79
2023/06/25 04:49:50;;;;;;;;;;;18.10;99.90;;;;;;5106628;28;20047;-79
2023/06/25 04:52:19;;;;;;;1.65;1.45;;;18.20;99.90;;;;;;5112267;28;20370;-79
2023/06/25 04:54:47;;;;;;;1.42;1.30;;;18.20;99.90;;;;;;5094632;28;20047;-79
2023/06/25 04:57:13;;;;;;;1.58;1.45;;;18.30;99.90;;;;;;5145646;27;20101;-81
2023/06/25 04:59:39;;;;;;;;;;;18.40;73.50;;;;;;5113215;28;20462;-79
2023/06/25 05:02:06;;;;;;;1.60;1.45;;;18.40;1.00;;;;;;5090206;28;20340;-81
2023/06/25 05:04:31;;;;;;;1.90;1.42;;;18.50;1.00;;;;;;5110669;28;20474;-80
2023/06/25 05:06:57;;;;;;;;;;;18.50;99.90;;;;;;5147458;27;20043;-80
2023/06/25 05:09:22;;;;;;;1.92;1.40;;;18.60;99.90;;;;;;5094735;28;19977;-79
2023/06/25 05:11:48;;;;;;;;;;;18.70;99.90;;;;;;5106192;27;20517;-79
2023/06/25 05:14:13;;;;;;;1.48;1.38;;;18.70;99.90;;;;;;5116282;27;19926;-79
2023/06/25 05:16:39;;;;;;;;;;;18.80;75.00;;;;;;5099178;27;20039;-79
2023/06/25 05:19:05;;;;;;;1.95;1.40;;;18.90;49.10;;;;;;5099310;27;19922;-79
2023/06/25 05:21:30;;;;;;;;;;;18.90;18.30;;;;;;5090881;27;20065;-79
2023/06/25 05:23:58;;;;;;;1.98;1.38;;;19.00;1.00;;;;;;5119478;27;20373;-79
2023/06/25 05:26:27;;;;;;;1.52;1.23;;;19.00;99.90;;;;;;5116121;27;20039;-79
2023/06/25 05:28:54;;;;;;;1.95;1.60;;;19.10;99.90;;;;;;5094797;27;20044;-79
2023/06/25 05:31:20;;;;;;;1.85;1.60;;;19.20;99.90;;;;;;5116218;27;20054;-80
2023/06/25 05:33:45;;;;;;;;;;;19.20;44.00;;;;;;5116607;27;20043;-78
2023/06/25 05:36:13;;;;;;;2.35;2.00;;;19.30;1.00;;;;;;5116191;27;19915;-80
2023/06/25 05:38:38;;;;;;;2.10;1.60;;;19.40;99.90;;;;;;5108148;27;20031;-78
2023/06/25 05:41:04;;;;;;;;;;;19.50;99.90;;;;;;5142276;27;20058;-78
2023/06/25 05:43:30;;;;;;;2.97;1.90;;;19.60;99.90;;;;;;5104332;27;19939;-78
2023/06/25 05:45:55;;;;;;;;;;;19.60;99.90;;;;;;5114350;27;20069;-78
2023/06/25 05:48:21;;;;;;;1.77;1.60;;;19.70;99.90;;;;;;5114716;27;19919;-78
2023/06/25 05:50:47;;;;;;;1.58;1.40;;;19.80;99.90;;;;;;5098241;27;20038;-78
2023/06/25 05:53:12;;;;;;;;;;;19.90;99.90;;;;;;5150963;27;20096;-78
2023/06/25 05:55:38;;;;;;;2.10;1.80;;;20.00;99.90;;;;;;5115751;27;20370;-78
2023/06/25 05:58:04;;;;;;;;;;;20.10;95.10;;;;;;5098752;27;20083;-79
2023/06/25 06:00:29;;;;;;;2.42;1.85;;;20.30;1.00;;;;;;5115387;27;19972;-79
2023/06/25 06:02:55;;;;;;;;;;;20.40;99.90;;;;;;5150547;27;20119;-79
2023/06/25 06:05:21;;;;;;;1.63;1.42;;;20.50;1.00;;;;;;5115659;27;19926;-79
2023/06/25 06:07:46;;;;;;;;;;;20.60;1.00;;;;;;5116135;27;20039;-79
2023/06/25 06:10:16;;;;;;;2.60;1.60;;;20.80;99.90;;;;;;5115089;27;19915;-78
2023/06/25 06:12:42;;;;;;;2.00;1.70;;;20.90;99.90;;;;;;5115106;27;20066;-79
2023/06/25 06:15:08;;;;;;;1.88;1.58;;;20.90;99.90;;;;;;5115219;27;20043;-79
2023/06/25 06:17:33;;;;;;;1.95;1.67;;;21.00;99.90;;;;;;5094797;27;20074;-78
2023/06/25 06:19:59;;;;;;;1.40;1.30;;;21.10;97.00;;;;;;5089458;27;20531;-78
2023/06/25 06:22:25;;;;;;;1.80;1.50;;;21.10;99.90;;;;;;5101784;28;20375;-78
2023/06/25 06:24:50;;;;;;;1.77;1.63;;;21.30;99.90;;;;;;5097320;27;20105;-78
2023/06/25 06:27:16;;;;;;;2.20;1.58;;;21.30;62.00;;;;;;5079726;27;20589;-78
2023/06/25 06:29:42;;;;;;;1.48;1.38;;;21.40;95.30;;;;;;5148993;27;20082;-78
2023/06/25 06:32:08;;;;;;;1.35;1.25;;;21.50;90.90;;;;;;5090808;27;20397;-78
2023/06/25 06:34:34;;;;;;;1.60;1.50;;;21.60;99.90;;;;;;5114566;27;20046;-78
2023/06/25 06:37:00;;;;;;;2.28;1.23;;;21.70;13.30;;;;;;5091016;27;20044;-78
2023/06/25 06:39:25;;;;;;;1.70;1.52;;;21.80;65.00;;;;;;5090663;28;20526;-78
2023/06/25 06:41:51;;;;;;;2.38;2.05;;;21.90;1.00;;;;;;5092656;27;20275;-78
2023/06/25 06:44:18;;;;;;;2.67;2.13;;;21.90;1.00;;;;;;5088249;27;20043;-78
2023/06/25 06:46:44;;;;;;;2.38;1.90;;;22.00;99.90;;;;;;5127378;27;20133;-78
2023/06/25 06:49:10;;;;;;;2.47;2.20;;;22.20;99.90;;;;;;5112604;27;20035;-78
2023/06/25 06:51:37;;;;;;;2.42;2.00;;;22.20;1.00;;;;;;5114256;27;20554;-77
2023/06/25 06:54:06;;;;;;;1.70;1.60;;;22.30;99.90;;;;;;5111682;27;20043;-78
2023/06/25 06:56:32;;;;;;;1.70;1.52;;;22.40;1.00;;;;;;5088893;27;20043;-77
2023/06/25 06:58:58;;;;;;;1.90;1.60;;;22.60;1.00;;;;;;5121225;27;20055;-77
2023/06/25 07:01:25;;;;;;;2.10;1.90;;;22.70;1.00;;;;;;5114218;27;20069;-77
2023/06/25 07:03:51;;;;;;;2.50;2.00;;;22.80;99.90;;;;;;5114693;27;20067;-77
2023/06/25 07:06:16;;;;;;;2.78;1.98;;;22.90;99.90;;;;;;5140449;27;20109;-78
2023/06/25 07:08:42;;;;;;;1.83;1.70;;;23.00;99.90;;;;;;5114401;27;20039;-77
2023/06/25 07:11:07;;;;;;;2.50;2.00;;;23.20;99.90;;;;;;5089890;27;20039;-78
2023/06/25 07:13:33;;;;;;;2.30;1.92;;;23.30;99.90;;;;;;5149444;27;20398;-78
2023/06/25 07:15:59;;;;;;;2.55;2.13;;;23.40;99.90;;;;;;5114241;27;20446;-78
2023/06/25 07:18:24;;;;;;;2.58;1.85;;;23.40;99.90;;;;;;5115261;27;20079;-77
2023/06/25 07:20:50;;;;;;;2.25;1.80;;;23.50;99.90;;;;;;5123104;27;20036;-79
2023/06/25 07:23:16;;;;;;;2.28;1.85;;;23.60;99.90;;;;;;5095112;27;20039;-77
2023/06/25 07:25:42;;;;;;;1.92;1.65;;;23.60;99.90;;;;;;5138638;27;20122;-78
2023/06/25 07:28:10;;;;;;;2.17;1.98;;;23.80;99.90;;;;;;5104832;27;20075;-77
2023/06/25 07:30:38;;;;;;;2.35;1.90;;;23.90;99.90;;;;;;5088740;27;20386;-78
2023/06/25 07:33:04;;;;;;;3.08;1.90;;;24.00;99.90;;;;;;5085127;27;20487;-79
2023/06/25 07:35:30;;;;;;;3.17;2.35;;;24.20;99.90;;;;;;5087546;27;20100;-77
2023/06/25 07:37:55;;;;;;;3.00;2.10;;;24.30;99.90;;;;;;5117396;27;20035;-79
2023/06/25 07:40:21;;;;;;;2.40;2.00;;;24.40;99.90;;;;;;5078269;27;20050;-79
2023/06/25 07:42:47;;;;;;;2.72;2.30;;;24.50;99.90;;;;;;5101569;27;20482;-77
2023/06/25 07:45:12;;;;;;;3.67;2.55;;;24.60;99.90;;;;;;5131145;27;20460;-77
2023/06/25 07:47:38;;;;;;;2.50;2.30;;;24.70;99.90;;;;;;5095733;27;20053;-78
2023/06/25 07:50:05;;;;;;;2.35;2.15;;;24.70;99.90;;;;;;5146432;27;20125;-75
2023/06/25 07:52:31;;;;;;;2.88;2.55;;;24.80;91.10;;;;;;5111131;27;20042;-78
2023/06/25 07:54:56;;;;;;;2.63;2.20;;;24.90;48.80;;;;;;5100499;27;21079;-77
2023/06/25 07:57:22;;;;;;;3.20;2.20;;;25.00;44.20;;;;;;5106780;27;20509;-76
2023/06/25 07:59:48;;;;;;;2.47;2.17;;;25.20;95.50;;;;;;5111749;27;20534;-76
2023/06/25 08:02:14;;;;;;;4.00;2.35;;;25.30;99.90;;;;;;5079010;27;20066;-76
2023/06/25 08:04:39;;;;;;;2.83;2.30;;;25.30;1.00;;;;;;5112009;27;20042;-76
2023/06/25 08:07:05;;;;;;;3.40;2.20;;;25.40;39.90;;;;;;5077873;27;20083;-76
2023/06/25 08:09:31;;;;;;;3.28;2.50;;;25.60;1.00;;;;;;5113221;27;20049;-77
2023/06/25 08:11:57;;;;;;;2.53;2.30;;;25.60;1.00;;;;;;5113015;27;20107;-77
2023/06/25 08:14:23;;;;;;;2.83;2.45;;;25.90;5.00;;;;;;5113144;27;20043;-76
2023/06/25 08:16:49;;;;;;;2.40;2.20;;;26.00;1.00;;;;;;5113121;27;20049;-76
2023/06/25 08:19:15;;;;;;;2.70;2.50;;;26.00;1.00;;;;;;5112897;27;20047;-77
2023/06/25 08:21:40;;;;;;;2.13;1.92;;;26.10;1.00;;;;;;5113263;27;20083;-77
2023/06/25 08:24:06;;;;;;;2.40;2.20;;;26.30;1.00;;;;;;5147116;27;20117;-77
2023/06/25 08:26:32;;;;;;;2.08;1.88;;;26.40;1.00;;;;;;5113004;27;20079;-77
2023/06/25 08:28:58;;;;;;;2.60;2.00;;;26.60;1.00;;;;;;5112591;27;20383;-76
2023/06/25 08:31:23;;;;;;;2.17;1.98;;;26.60;1.00;;;;;;5146996;27;20046;-76
2023/06/25 08:33:49;;;;;;;2.28;2.00;;;26.80;99.90;;;;;;5096107;27;20047;-76
2023/06/25 08:36:15;;;;;;;3.30;2.40;;;26.90;99.90;;;;;;5113547;27;20062;-77
2023/06/25 08:38:40;;;;;;;2.40;2.20;;;26.90;99.90;;;;;;5095651;27;20118;-77
2023/06/25 08:41:06;;;;;;;2.80;2.50;;;27.00;99.90;;;;;;5147323;27;20088;-77
2023/06/25 08:43:32;;;;;;;2.50;2.30;;;27.10;99.90;;;;;;5075710;28;20096;-77
2023/06/25 08:45:58;;;;;;;2.30;2.10;;;27.30;99.90;;;;;;5109476;28;20043;-77
2023/06/25 08:48:27;;;;;;;2.42;2.03;;;27.40;99.90;;;;;;5075906;28;20072;-77
2023/06/25 08:51:01;;;;;;;2.30;2.10;;;27.60;99.90;;;;;;5075562;28;20036;-77
2023/06/25 08:53:31;;;;;;;2.28;2.08;;;27.70;99.90;;;;;;5110456;28;20127;-77
2023/06/25 08:55:59;;;;;;;2.03;1.85;;;27.80;99.90;;;;;;5112727;28;20507;-77
2023/06/25 08:58:25;;;;;;;2.28;2.08;;;27.90;99.90;;;;;;5112290;28;20051;-77
2023/06/25 09:00:51;;;;;;;1.70;1.60;;;28.10;99.90;;;;;;5112962;28;20035;-77
2023/06/25 09:03:17;;;;;;;1.95;1.75;;;28.30;99.90;;;;;;5128267;27;20118;-77
2023/06/25 09:05:53;;;;;;;2.10;1.70;;;28.40;99.90;;;;;;5110940;28;20039;-77
2023/06/25 09:08:25;;;;;;;2.05;1.80;;;28.60;99.90;;;;;;5092723;28;20047;-77
2023/06/25 09:10:52;;;;;;;1.80;1.70;;;28.70;25.70;;;;;;5092502;28;20386;-77
2023/06/25 09:13:26;;;;;;;1.65;1.55;;;28.90;11.80;;;;;;5092644;28;20058;-77
2023/06/25 09:15:59;;;;;;;1.90;1.70;;;29.00;99.90;;;;;;5092450;28;20478;-77
2023/06/25 09:18:25;;;;;;;2.05;1.85;;;29.00;17.30;;;;;;5075487;28;20189;-77
2023/06/25 09:20:50;;;;;;;2.45;1.90;;;29.10;1.00;;;;;;5109151;28;20122;-77
2023/06/25 09:23:21;;;;;;;2.10;1.90;;;29.10;1.00;;;;;;5075404;28;20044;-77
2023/06/25 09:25:47;;;;;;;2.70;1.70;;;29.10;1.00;;;;;;5092507;28;20082;-77
2023/06/25 09:28:13;;;;;;;1.90;1.70;;;29.30;1.00;;;;;;5092272;28;20415;-76
2023/06/25 09:30:39;;;;;;;2.90;1.90;;;29.40;1.00;;;;;;5091726;28;20101;-77
2023/06/25 09:33:05;;;;;;;1.90;1.70;;;29.50;1.00;;;;;;5108935;28;20077;-77
2023/06/25 09:35:33;;;;;;;1.70;1.60;;;29.70;1.00;;;;;;5091922;28;20047;-77
2023/06/25 09:38:00;;;;;;;1.95;1.75;;;29.90;1.00;;;;;;5074947;28;20040;-77
2023/06/25 09:40:26;;;;;;;1.90;1.77;;;30.00;1.00;;;;;;5091865;28;20059;-77
2023/06/25 09:42:59;;;;;;;1.70;1.50;;;30.10;99.90;;;;;;5126266;28;20044;-77
2023/06/25 09:45:26;;;;;;;2.05;1.70;;;30.10;1.00;;;;;;5091764;28;20042;-77
2023/06/25 09:47:56;;;;;;;2.03;1.77;;;30.10;1.00;;;;;;5091945;28;20518;-76
2023/06/25 09:50:29;;;;;;;1.60;1.50;;;30.10;99.90;;;;;;5110098;28;20439;-76
2023/06/25 09:52:57;;;;;;;2.10;1.90;;;30.20;99.90;;;;;;5092203;28;20138;-76
2023/06/25 09:55:27;;;;;;;1.67;1.58;;;30.30;99.90;;;;;;5091904;28;20423;-76
2023/06/25 09:57:54;;;;;;;2.05;1.73;;;30.40;99.90;;;;;;5100626;27;20513;-76
2023/06/25 10:00:21;;;;;;;1.90;1.77;;;30.30;99.90;;;;;;5115600;27;20039;-77
2023/06/25 10:02:47;;;;;;;1.98;1.77;;;30.50;99.90;;;;;;5116132;27;20047;-76
2023/06/25 10:05:13;;;;;;;1.58;1.48;;;30.60;99.90;;;;;;5115776;27;20478;-77
2023/06/25 10:07:40;;;;;;;1.73;1.60;;;30.60;99.90;;;;;;5115739;27;20057;-76
2023/06/25 10:10:07;;;;;;;1.77;1.50;;;30.70;99.90;;;;;;5099021;27;20424;-76
2023/06/25 10:12:35;;;;;;;1.60;1.50;;;30.70;99.90;;;;;;5115528;27;20099;-76
2023/06/25 10:15:03;;;;;;;2.10;1.63;;;30.90;99.90;;;;;;5098784;27;20361;-77
2023/06/25 10:17:29;;;;;;;1.63;1.52;;;31.00;99.90;;;;;;5115643;27;20108;-77
2023/06/25 10:19:59;;;;;;;1.55;1.45;;;31.20;99.90;;;;;;5098574;27;20486;-76
2023/06/25 10:22:26;;;;;;;2.63;1.80;;;31.20;99.90;;;;;;5115564;27;20384;-76
2023/06/25 10:24:53;;;;;;;1.65;1.55;;;31.20;99.90;;;;;;5115471;27;20114;-76
2023/06/25 10:27:29;;;;;;;2.20;1.92;;;31.20;99.90;;;;;;5115640;27;20085;-76
2023/06/25 10:29:57;;;;;;;1.70;1.60;;;31.20;99.90;;;;;;5115286;27;20058;-76
2023/06/25 10:32:24;;;;;;;2.10;1.90;;;31.20;99.90;;;;;;5115420;27;20043;-77
2023/06/25 10:34:55;;;;;;;1.80;1.70;;;31.40;99.90;;;;;;5115216;27;20046;-76
2023/06/25 10:37:21;;;;;;;2.05;1.85;;;31.50;99.90;;;;;;5115395;27;20051;-76
2023/06/25 10:39:46;;;;;;;2.33;2.13;;;31.60;99.90;;;;;;5115367;27;20039;-77
2023/06/25 10:42:13;;;;;;;2.03;1.77;;;31.60;99.90;;;;;;5114988;27;20039;-77
2023/06/25 10:44:40;;;;;;;2.13;1.92;;;31.70;99.90;;;;;;5115580;27;20039;-77
2023/06/25 10:47:10;;;;;;;1.88;1.77;;;31.70;99.90;;;;;;5115348;27;20134;-77
2023/06/25 10:49:36;;;;;;;2.15;1.60;;;31.80;99.90;;;;;;5114799;27;20043;-77
2023/06/25 10:52:04;;;;;;;1.80;1.60;;;31.90;99.90;;;;;;5114988;27;20509;-77
2023/06/25 10:54:33;;;;;;;2.10;1.90;;;31.90;99.90;;;;;;5115228;27;20043;-77
2023/06/25 10:57:13;;;;;;;1.88;1.67;;;31.80;99.90;;;;;;5149238;27;20508;-77
2023/06/25 10:59:43;;;;;;;2.03;1.83;;;31.80;99.90;;;;;;5115238;27;20047;-77
2023/06/25 11:02:19;;;;;;;1.80;1.60;;;32.00;99.90;;;;;;5098141;27;20398;-77
2023/06/25 11:04:56;;;;;;;2.47;2.00;;;32.30;99.90;;;;;;5115157;27;20124;-77
2023/06/25 11:07:23;;;;;;;2.40;2.15;;;32.10;99.90;;;;;;5115247;27;20046;-77
2023/06/25 11:09:56;;;;;;;2.03;1.60;;;32.10;99.90;;;;;;5098478;27;20057;-77
2023/06/25 11:12:22;;;;;;;2.15;1.95;;;32.10;99.90;;;;;;5114675;27;20061;-77
2023/06/25 11:14:47;;;;;;;1.83;1.70;;;32.10;99.90;;;;;;5149232;27;20051;-77
2023/06/25 11:17:14;;;;;;;1.75;1.60;;;32.20;99.90;;;;;;5114387;27;20043;-77
2023/06/25 11:19:40;;;;;;;1.67;1.58;;;32.50;99.90;;;;;;5097406;27;20039;-77
2023/06/25 11:22:10;;;;;;;1.70;1.60;;;32.50;99.90;;;;;;5148905;27;20035;-78
2023/06/25 11:24:37;;;;;;;1.52;1.40;;;32.50;99.90;;;;;;5097655;27;20046;-78
2023/06/25 11:27:03;;;;;;;1.80;1.60;;;32.60;99.90;;;;;;5114723;27;20149;-78
2023/06/25 11:29:39;;;;;;;2.05;1.85;;;32.60;99.90;;;;;;5097528;27;20039;-77
2023/06/25 11:32:08;;;;;;;1.88;1.58;;;32.50;99.90;;;;;;5097149;27;20051;-78
2023/06/25 11:34:34;;;;;;;1.70;1.60;;;32.60;99.90;;;;;;5114641;27;20043;-78
2023/06/25 11:37:10;;;;;;;2.03;1.70;;;32.70;99.90;;;;;;5113923;27;20366;-77
2023/06/25 11:39:46;;;;;;;1.85;1.75;;;32.60;99.90;;;;;;5148784;27;20035;-78
2023/06/25 11:42:17;;;;;;;1.70;1.60;;;32.50;99.90;;;;;;5097152;27;20039;-77
2023/06/25 11:44:43;;;;;;;1.27;1.17;;;32.70;99.90;;;;;;5097064;27;20130;-77
2023/06/25 11:47:10;;;;;;;2.22;1.50;;;33.00;99.90;;;;;;5114080;27;20115;-77
2023/06/25 11:49:38;;;;;;;2.60;1.40;;;33.10;99.90;;;;;;5114170;27;20066;-78
2023/06/25 11:52:04;;;;;;;1.70;1.50;;;33.10;99.90;;;;;;5097003;27;20039;-77
2023/06/25 11:54:29;;;;;;;2.13;1.30;;;33.10;99.90;;;;;;5113725;27;20039;-77
2023/06/25 11:56:55;;;;;;;2.97;1.58;;;33.10;99.90;;;;;;5148049;27;20107;-77
2023/06/25 11:59:21;;;;;;;1.85;1.35;;;33.10;99.90;;;;;;5113388;27;20050;-78
2023/06/25 12:01:47;;;;;;;1.52;1.33;;;33.30;99.90;;;;;;5097004;27;20035;-78
2023/06/25 12:04:12;;;;;;;1.70;1.48;;;33.30;99.90;;;;;;5148230;27;20486;-77
2023/06/25 12:06:38;;;;;;;1.40;1.30;;;33.20;99.90;;;;;;5096875;27;20057;-77
2023/06/25 12:09:04;;;;;;;1.20;1.10;;;33.40;99.90;;;;;;5148211;27;20154;-77
2023/06/25 12:11:30;;;;;;;1.60;1.30;;;33.10;99.90;;;;;;5132120;27;20070;-77
2023/06/25 12:13:56;;;;;;;1.40;1.30;;;33.10;99.90;;;;;;5113496;27;20169;-77
2023/06/25 12:16:22;;;;;;;1.38;1.27;;;33.20;99.90;;;;;;5113526;27;20078;-77
2023/06/25 12:18:47;;;;;;;1.50;1.35;;;33.20;99.90;;;;;;5147559;27;20044;-77
2023/06/25 12:21:13;;;;;;;2.83;1.30;;;33.10;99.90;;;;;;5113317;27;20447;-77
2023/06/25 12:23:39;;;;;;;1.30;1.20;;;33.30;99.90;;;;;;5131863;27;20057;-77
2023/06/25 12:26:04;;;;;;;1.20;1.10;;;33.30;99.90;;;;;;5113217;27;20617;-77
2023/06/25 12:28:30;;;;;;;1.40;1.30;;;33.40;99.90;;;;;;5131725;27;20038;-78
2023/06/25 12:30:56;;;;;;;1.40;1.30;;;33.30;99.90;;;;;;5096719;27;20061;-77
2023/06/25 12:33:21;;;;;;;1.38;1.05;;;33.30;99.90;;;;;;5147425;27;20490;-77
2023/06/25 12:35:47;;;;;;;1.40;1.30;;;33.40;99.90;;;;;;5079255;28;20058;-77
2023/06/25 12:38:13;;;;;;;1.23;1.08;;;33.30;99.90;;;;;;5147485;27;20058;-77
2023/06/25 12:40:39;;;;;;;1.42;1.27;;;33.40;99.90;;;;;;5096240;27;20031;-77
2023/06/25 12:43:04;;;;;;;1.60;1.50;;;33.40;99.90;;;;;;5096360;28;20390;-77
2023/06/25 12:45:30;;;;;;;1.23;1.13;;;33.50;99.90;;;;;;5096082;28;20541;-78
2023/06/25 12:47:56;;;;;;;1.30;1.20;;;33.70;99.90;;;;;;5112994;27;20047;-78
2023/06/25 12:50:21;;;;;;;1.90;1.50;;;33.60;99.90;;;;;;5147123;27;20198;-78
2023/06/25 12:52:47;;;;;;;2.17;1.60;;;33.50;99.90;;;;;;5096309;28;20045;-78
2023/06/25 12:55:13;;;;;;;1.50;1.23;;;33.30;99.90;;;;;;5147605;27;20031;-78
2023/06/25 12:57:39;;;;;;;1.52;1.33;;;33.60;99.90;;;;;;5095569;28;20051;-78